Time;durP1;ratioP1;P1;durP2;ratioP2;P2;SDS_P1;SDS_P2;PMS_P1;PMS_P2;Temp;Humidity;BMP_temperature;BMP_pressure;BME280_temperature;BME280_humidity;BME280_pressure;Samples;Min_cycle;Max_cycle;Signal;HPM_P1;HPM_P2
2021/04/29 00:01:42;;;;;;;6.78;5.10;;;10.60;99.90;;;;;;5043802;28;20530;-76
2021/04/29 00:04:09;;;;;;;6.03;5.43;;;10.60;99.90;;;;;;5039689;28;20038;-76
2021/04/29 00:06:35;;;;;;;11.80;6.25;;;10.70;99.90;;;;;;5034265;28;20475;-76
2021/04/29 00:09:02;;;;;;;8.15;6.53;;;10.70;99.90;;;;;;5039618;28;20029;-76
2021/04/29 00:11:28;;;;;;;7.47;6.32;;;10.70;99.90;;;;;;5043716;28;20090;-76
2021/04/29 00:13:54;;;;;;;10.65;6.40;;;10.70;99.90;;;;;;5051945;28;20064;-76
2021/04/29 00:16:20;;;;;;;6.93;5.65;;;10.70;99.90;;;;;;5052568;28;20025;-76
2021/04/29 00:18:45;;;;;;;7.63;5.30;;;10.70;99.90;;;;;;5043310;28;20457;-76
2021/04/29 00:21:11;;;;;;;6.88;6.25;;;10.70;99.90;;;;;;5050118;28;20036;-76
2021/04/29 00:23:37;;;;;;;5.97;4.95;;;10.70;99.90;;;;;;5052187;28;20069;-76
2021/04/29 00:26:03;;;;;;;5.00;4.47;;;10.70;99.90;;;;;;5043143;28;20472;-76
2021/04/29 00:28:29;;;;;;;6.05;5.25;;;10.70;99.90;;;;;;5033680;28;20383;-76
2021/04/29 00:30:54;;;;;;;7.25;4.35;;;10.70;99.90;;;;;;5049894;28;20506;-76
2021/04/29 00:33:20;;;;;;;6.70;5.25;;;10.60;99.90;;;;;;5043486;28;20032;-76
2021/04/29 00:35:46;;;;;;;9.80;4.28;;;10.60;99.90;;;;;;5045268;28;20033;-76
2021/04/29 00:38:12;;;;;;;7.47;5.38;;;10.60;99.90;;;;;;5044030;28;20103;-76
2021/04/29 00:40:37;;;;;;;7.90;6.32;;;10.70;99.90;;;;;;5033315;28;20455;-76
2021/04/29 00:43:03;;;;;;;11.85;7.28;;;10.70;99.90;;;;;;5034344;28;20033;-76
2021/04/29 00:45:29;;;;;;;10.57;7.00;;;10.70;99.90;;;;;;5032738;28;20426;-76
2021/04/29 00:47:55;;;;;;;10.13;7.57;;;10.70;99.90;;;;;;5040427;28;20549;-76
2021/04/29 00:50:25;;;;;;;10.65;7.22;;;10.70;99.90;;;;;;5045104;28;20441;-76
2021/04/29 00:52:51;;;;;;;11.13;7.20;;;10.60;99.90;;;;;;5032685;28;20021;-76
2021/04/29 00:55:17;;;;;;;9.98;6.80;;;10.60;99.90;;;;;;5032694;28;20033;-76
2021/04/29 00:57:43;;;;;;;9.35;6.90;;;10.70;99.90;;;;;;5031354;28;20538;-76
2021/04/29 01:00:10;;;;;;;7.57;6.85;;;10.60;99.90;;;;;;5047427;28;20035;-76
2021/04/29 01:02:41;;;;;;;7.88;7.07;;;10.70;99.90;;;;;;5052287;28;20495;-76
2021/04/29 01:05:18;;;;;;;10.55;7.22;;;10.70;99.90;;;;;;5052514;28;20041;-76
2021/04/29 01:07:51;;;;;;;11.95;7.53;;;10.70;99.90;;;;;;5035633;28;20057;-76
2021/04/29 01:10:26;;;;;;;9.32;6.60;;;10.70;99.90;;;;;;5040573;28;20021;-76
2021/04/29 01:13:18;;;;;;;10.95;7.35;;;10.70;99.90;;;;;;5042102;28;20057;-76
2021/04/29 01:15:47;;;;;;;12.20;6.88;;;10.80;99.90;;;;;;5052322;28;20071;-76
2021/04/29 01:18:14;;;;;;;13.80;6.75;;;10.80;99.90;;;;;;5051864;28;20067;-76
2021/04/29 01:20:56;;;;;;;7.57;6.72;;;10.70;99.90;;;;;;5052364;28;20055;-76
2021/04/29 01:23:40;;;;;;;11.23;6.60;;;10.70;99.90;;;;;;5035680;28;20038;-76
2021/04/29 01:26:40;;;;;;;9.38;7.05;;;10.70;99.90;;;;;;5025334;28;20034;-76
2021/04/29 01:29:14;;;;;;;11.40;6.50;;;10.80;99.90;;;;;;5049472;28;20041;-76
2021/04/29 01:31:43;;;;;;;8.05;6.00;;;10.80;99.90;;;;;;5050866;28;20033;-76
2021/04/29 01:34:15;;;;;;;12.13;7.70;;;10.70;99.90;;;;;;5037635;28;20083;-76
2021/04/29 01:36:42;;;;;;;9.70;6.60;;;10.60;99.90;;;;;;5012454;28;20030;-76
2021/04/29 01:39:10;;;;;;;11.63;8.18;;;10.60;99.90;;;;;;5036975;28;20091;-76
2021/04/29 01:41:38;;;;;;;10.75;7.13;;;10.60;99.90;;;;;;5044691;28;20097;-76
2021/04/29 01:44:09;;;;;;;8.18;6.75;;;10.60;99.90;;;;;;5035961;28;20040;-76
2021/04/29 01:46:35;;;;;;;;;;;10.40;99.90;;;;;;5034681;28;20029;-76
2021/04/29 01:49:02;;;;;;;10.25;7.22;;;10.20;99.90;;;;;;5048242;28;19905;-76
2021/04/29 01:51:29;;;;;;;11.88;7.20;;;10.30;99.90;;;;;;5055583;28;20108;-76
2021/04/29 01:53:55;;;;;;;10.38;6.75;;;10.40;99.90;;;;;;5051000;28;20479;-76
2021/04/29 01:56:21;;;;;;;8.77;7.85;;;10.60;99.90;;;;;;5042513;28;20021;-76
2021/04/29 01:58:47;;;;;;;11.65;7.40;;;10.70;99.90;;;;;;5036687;28;20479;-76
2021/04/29 02:01:13;;;;;;;9.73;7.55;;;10.70;99.90;;;;;;5035275;28;20121;-76
2021/04/29 02:03:39;;;;;;;7.30;6.30;;;10.80;99.90;;;;;;5035430;28;20034;-76
2021/04/29 02:06:05;;;;;;;9.02;6.57;;;10.70;99.90;;;;;;5035514;28;20029;-76
2021/04/29 02:08:32;;;;;;;10.18;7.10;;;10.70;99.90;;;;;;5052015;28;20049;-76
2021/04/29 02:11:01;;;;;;;10.35;6.82;;;10.60;99.90;;;;;;5054456;28;20025;-76
2021/04/29 02:13:29;;;;;;;7.68;6.45;;;10.70;99.90;;;;;;5054793;28;20429;-76
2021/04/29 02:16:05;;;;;;;8.88;7.55;;;10.60;99.90;;;;;;5055023;28;20071;-76
2021/04/29 02:18:32;;;;;;;12.65;7.13;;;10.60;99.90;;;;;;5054570;28;20056;-76
2021/04/29 02:21:00;;;;;;;12.43;7.30;;;10.60;99.90;;;;;;5038213;28;20033;-76
2021/04/29 02:23:26;;;;;;;9.38;6.20;;;10.70;99.90;;;;;;5037761;28;20044;-76
2021/04/29 02:25:54;;;;;;;10.23;5.90;;;10.60;99.90;;;;;;5043689;28;20022;-76
2021/04/29 02:28:20;;;;;;;7.50;6.60;;;10.60;99.90;;;;;;5042274;28;20024;-76
2021/04/29 02:30:48;;;;;;;6.88;6.18;;;10.70;99.90;;;;;;5055011;28;20040;-76
2021/04/29 02:33:15;;;;;;;11.40;6.50;;;10.70;99.90;;;;;;5045202;28;20520;-76
2021/04/29 02:35:41;;;;;;;8.55;7.50;;;10.70;99.90;;;;;;5035034;28;20345;-76
2021/04/29 02:38:08;;;;;;;8.65;6.55;;;10.60;99.90;;;;;;5046621;28;20025;-76
2021/04/29 02:40:33;;;;;;;7.63;6.78;;;10.70;99.90;;;;;;5034100;28;20026;-76
2021/04/29 02:43:00;;;;;;;12.57;6.18;;;10.70;99.90;;;;;;5044114;28;20509;-76
2021/04/29 02:45:27;;;;;;;11.20;6.00;;;10.60;99.90;;;;;;5054403;28;20110;-76
2021/04/29 02:47:54;;;;;;;8.68;7.32;;;10.50;99.90;;;;;;5052639;28;20483;-76
2021/04/29 02:50:22;;;;;;;8.38;7.15;;;10.50;99.90;;;;;;5052829;28;20032;-76
2021/04/29 02:52:53;;;;;;;18.75;7.13;;;10.60;99.90;;;;;;5033706;28;20091;-76
2021/04/29 02:55:23;;;;;;;10.30;8.68;;;10.50;99.90;;;;;;5034013;28;20039;-76
2021/04/29 02:57:49;;;;;;;13.38;9.82;;;10.60;99.90;;;;;;5037460;28;20028;-76
2021/04/29 03:00:18;;;;;;;16.48;9.73;;;10.40;99.90;;;;;;5054470;28;20096;-76
2021/04/29 03:02:44;;;;;;;13.15;9.27;;;10.30;99.90;;;;;;5049608;28;20502;-76
2021/04/29 03:05:14;;;;;;;12.52;9.55;;;10.30;99.90;;;;;;5034062;28;20053;-76
2021/04/29 03:07:41;;;;;;;;;;;10.30;99.90;;;;;;5040057;28;20445;-76
2021/04/29 03:10:08;;;;;;;11.68;10.48;;;10.30;99.90;;;;;;5054263;28;19908;-76
2021/04/29 03:12:34;;;;;;;12.40;10.13;;;10.20;99.90;;;;;;5052350;28;20029;-76
2021/04/29 03:15:00;;;;;;;14.13;9.68;;;10.20;99.90;;;;;;5034617;28;20139;-76
2021/04/29 03:17:26;;;;;;;13.25;10.27;;;10.20;99.90;;;;;;5032416;28;20144;-76
2021/04/29 03:19:52;;;;;;;11.38;9.82;;;10.20;99.90;;;;;;5033450;28;20026;-76
2021/04/29 03:22:19;;;;;;;14.02;9.90;;;10.10;99.90;;;;;;5033780;28;20092;-76
2021/04/29 03:24:45;;;;;;;11.45;10.27;;;10.10;99.90;;;;;;5046734;28;20083;-76
2021/04/29 03:27:12;;;;;;;10.52;9.43;;;10.10;99.90;;;;;;5045454;28;20032;-76
2021/04/29 03:29:37;;;;;;;13.10;10.35;;;10.10;99.90;;;;;;5051691;28;20021;-76
2021/04/29 03:32:04;;;;;;;11.30;9.57;;;10.10;99.90;;;;;;5052951;28;20024;-76
2021/04/29 03:34:29;;;;;;;10.77;8.73;;;10.10;99.90;;;;;;5034751;28;20033;-76
2021/04/29 03:36:55;;;;;;;11.27;9.95;;;9.90;99.90;;;;;;5033784;28;20071;-76
2021/04/29 03:39:21;;;;;;;11.55;8.63;;;10.00;99.90;;;;;;5040538;28;20026;-76
2021/04/29 03:41:46;;;;;;;11.57;9.93;;;10.00;99.90;;;;;;5033550;28;20034;-76
2021/04/29 03:44:12;;;;;;;10.32;8.35;;;9.90;99.90;;;;;;5048256;28;20025;-76
2021/04/29 03:46:38;;;;;;;12.35;10.32;;;10.00;99.90;;;;;;5035001;28;20088;-76
2021/04/29 03:49:04;;;;;;;12.55;9.50;;;9.90;99.90;;;;;;5043314;28;20396;-76
2021/04/29 03:51:29;;;;;;;10.50;9.48;;;9.90;99.90;;;;;;5049885;28;20029;-76
2021/04/29 03:53:55;;;;;;;11.10;8.43;;;9.90;99.90;;;;;;5052201;28;20033;-76
2021/04/29 03:56:21;;;;;;;14.35;9.07;;;9.80;99.90;;;;;;5053235;28;20024;-76
2021/04/29 03:58:47;;;;;;;11.63;9.05;;;9.70;99.90;;;;;;5051884;28;20074;-76
2021/04/29 04:01:12;;;;;;;12.43;9.63;;;9.70;99.90;;;;;;5052661;28;20053;-76
2021/04/29 04:03:38;;;;;;;10.55;8.77;;;9.70;99.90;;;;;;5035575;28;20061;-76
2021/04/29 04:06:04;;;;;;;10.30;8.77;;;9.50;99.90;;;;;;5031849;28;20087;-76
2021/04/29 04:08:30;;;;;;;11.10;7.90;;;9.40;99.90;;;;;;5032781;28;20028;-76
2021/04/29 04:10:56;;;;;;;11.88;8.45;;;9.30;99.90;;;;;;5033113;28;20464;-76
2021/04/29 04:13:22;;;;;;;10.90;8.38;;;9.30;99.90;;;;;;5032903;28;20463;-76
2021/04/29 04:15:48;;;;;;;11.77;8.55;;;9.20;99.90;;;;;;5043375;28;20036;-76
2021/04/29 04:18:14;;;;;;;12.50;9.65;;;9.30;99.90;;;;;;5044312;28;20033;-76
2021/04/29 04:20:43;;;;;;;12.57;8.55;;;9.40;99.90;;;;;;5033110;28;20029;-76
2021/04/29 04:23:09;;;;;;;12.60;9.45;;;9.20;99.90;;;;;;5033976;28;20029;-76
2021/04/29 04:25:35;;;;;;;10.30;7.55;;;9.30;99.90;;;;;;5052606;28;20025;-76
2021/04/29 04:28:01;;;;;;;9.90;8.82;;;9.20;99.90;;;;;;5037939;28;20075;-76
2021/04/29 04:30:27;;;;;;;11.55;8.68;;;9.00;99.90;;;;;;5032901;28;20059;-76
2021/04/29 04:32:53;;;;;;;9.57;8.52;;;9.10;99.90;;;;;;5035039;28;20032;-76
2021/04/29 04:35:19;;;;;;;9.88;8.70;;;9.00;99.90;;;;;;5033933;28;20033;-76
2021/04/29 04:37:45;;;;;;;9.95;8.63;;;9.10;99.90;;;;;;5036978;28;20017;-76
2021/04/29 04:40:12;;;;;;;8.73;7.50;;;8.90;99.90;;;;;;5035107;28;20033;-76
2021/04/29 04:42:39;;;;;;;10.73;8.15;;;8.90;99.90;;;;;;5036324;28;20482;-76
2021/04/29 04:45:09;;;;;;;12.10;9.10;;;8.80;99.90;;;;;;5030235;28;20384;-76
2021/04/29 04:47:35;;;;;;;15.43;8.95;;;9.00;99.90;;;;;;5033580;28;20438;-76
2021/04/29 04:50:01;;;;;;;8.95;8.05;;;9.10;99.90;;;;;;5030897;28;20114;-76
2021/04/29 04:52:27;;;;;;;12.98;8.88;;;9.20;99.90;;;;;;5030581;28;20034;-76
2021/04/29 04:54:53;;;;;;;10.93;8.60;;;9.20;99.90;;;;;;5031388;28;20463;-76
2021/04/29 04:57:20;;;;;;;13.35;9.20;;;9.20;99.90;;;;;;5047746;28;20021;-76
2021/04/29 04:59:46;;;;;;;10.77;8.95;;;9.20;99.90;;;;;;5045387;28;20034;-76
2021/04/29 05:02:12;;;;;;;12.20;8.98;;;9.20;99.90;;;;;;5031308;28;20041;-76
2021/04/29 05:04:38;;;;;;;9.43;8.45;;;9.20;99.90;;;;;;5031621;28;20033;-76
2021/04/29 05:07:05;;;;;;;10.55;9.50;;;9.10;99.90;;;;;;5031077;28;20049;-76
2021/04/29 05:09:31;;;;;;;12.65;9.25;;;9.10;99.90;;;;;;5037402;28;20116;-76
2021/04/29 05:11:57;;;;;;;12.68;8.25;;;9.20;99.90;;;;;;5031335;28;20037;-76
2021/04/29 05:14:28;;;;;;;12.38;8.45;;;9.30;99.90;;;;;;5049687;28;20413;-76
2021/04/29 05:16:53;;;;;;;14.98;10.40;;;9.20;99.90;;;;;;5046127;28;20030;-76
2021/04/29 05:19:19;;;;;;;9.23;8.25;;;9.20;99.90;;;;;;5038524;28;20104;-76
2021/04/29 05:21:45;;;;;;;11.15;8.02;;;9.30;99.90;;;;;;5036718;28;20157;-76
2021/04/29 05:24:11;;;;;;;12.30;9.23;;;9.20;99.90;;;;;;5039704;28;20084;-76
2021/04/29 05:26:36;;;;;;;13.20;8.60;;;9.30;99.90;;;;;;5038388;28;20025;-76
2021/04/29 05:29:03;;;;;;;10.85;8.27;;;9.40;99.90;;;;;;5035247;28;20103;-76
2021/04/29 05:31:29;;;;;;;11.32;7.88;;;9.20;99.90;;;;;;5041237;28;20040;-76
2021/04/29 05:33:55;;;;;;;9.15;7.88;;;9.30;99.90;;;;;;5037170;28;20021;-76
2021/04/29 05:36:22;;;;;;;10.23;8.25;;;9.30;99.90;;;;;;5038046;28;20021;-76
2021/04/29 05:38:48;;;;;;;12.00;8.43;;;9.30;99.90;;;;;;5048072;28;20099;-76
2021/04/29 05:41:13;;;;;;;11.65;8.85;;;9.40;99.90;;;;;;5036673;28;20467;-76
2021/04/29 05:43:39;;;;;;;10.10;9.05;;;9.40;99.90;;;;;;5035712;28;20032;-76
2021/04/29 05:46:05;;;;;;;13.00;9.13;;;9.40;99.90;;;;;;5036834;28;20025;-76
2021/04/29 05:48:32;;;;;;;13.13;8.45;;;9.40;99.90;;;;;;5042236;28;20465;-76
2021/04/29 05:50:58;;;;;;;11.82;8.35;;;9.40;99.90;;;;;;5043338;28;20109;-76
2021/04/29 05:53:24;;;;;;;10.30;7.78;;;9.30;99.90;;;;;;5044534;28;20120;-76
2021/04/29 05:55:50;;;;;;;10.85;8.13;;;9.20;99.90;;;;;;5054258;28;20111;-76
2021/04/29 05:58:15;;;;;;;8.20;7.28;;;9.10;99.90;;;;;;5055384;28;20444;-76
2021/04/29 06:00:41;;;;;;;9.32;7.50;;;9.00;99.90;;;;;;5035260;28;20515;-76
2021/04/29 06:03:07;;;;;;;11.60;8.20;;;9.00;99.90;;;;;;5046968;28;20059;-76
2021/04/29 06:05:33;;;;;;;11.77;7.75;;;9.00;99.90;;;;;;5054112;28;20075;-76
2021/04/29 06:08:00;;;;;;;9.20;7.60;;;9.00;99.90;;;;;;5055203;28;20478;-76
2021/04/29 06:10:27;;;;;;;12.90;7.57;;;8.90;99.90;;;;;;5054029;28;20017;-76
2021/04/29 06:12:54;;;;;;;8.93;7.65;;;8.80;99.90;;;;;;5038464;28;20037;-76
2021/04/29 06:15:20;;;;;;;15.15;8.88;;;8.70;99.90;;;;;;5034846;28;20494;-76
2021/04/29 06:17:46;;;;;;;8.88;7.95;;;8.70;99.90;;;;;;5035159;28;20047;-76
2021/04/29 06:20:13;;;;;;;15.80;8.27;;;8.70;99.90;;;;;;5051963;28;20021;-76
2021/04/29 06:22:39;;;;;;;15.55;8.25;;;8.80;99.90;;;;;;5039222;28;20383;-76
2021/04/29 06:25:06;;;;;;;18.30;9.68;;;8.70;99.90;;;;;;5048077;28;20041;-76
2021/04/29 06:27:33;;;;;;;13.10;9.27;;;8.80;99.90;;;;;;5034458;28;20052;-76
2021/04/29 06:29:59;;;;;;;11.10;9.85;;;8.80;99.90;;;;;;5039891;28;20045;-76
2021/04/29 06:32:25;;;;;;;9.82;7.82;;;8.80;99.90;;;;;;5028936;28;20041;-76
2021/04/29 06:34:51;;;;;;;11.82;8.02;;;9.00;99.90;;;;;;5038735;28;20391;-76
2021/04/29 06:37:17;;;;;;;13.70;7.63;;;9.10;99.90;;;;;;5047232;28;20108;-76
2021/04/29 06:39:43;;;;;;;11.30;7.10;;;9.10;99.90;;;;;;5079389;28;20026;-76
2021/04/29 06:42:09;;;;;;;9.88;7.50;;;9.00;99.90;;;;;;5037646;28;20037;-76
2021/04/29 06:44:36;;;;;;;10.40;7.85;;;9.10;99.90;;;;;;5040579;28;20147;-76
2021/04/29 06:47:01;;;;;;;15.20;8.27;;;9.10;99.90;;;;;;5035282;28;20138;-76
2021/04/29 06:49:28;;;;;;;12.02;7.65;;;9.20;99.90;;;;;;5031099;28;20844;-76
2021/04/29 06:51:54;;;;;;;10.25;8.25;;;9.20;99.90;;;;;;5035917;28;20022;-76
2021/04/29 06:54:20;;;;;;;8.23;7.32;;;9.30;99.90;;;;;;5050032;28;20463;-76
2021/04/29 06:56:46;;;;;;;11.57;7.45;;;9.30;99.90;;;;;;5045602;28;20018;-75
2021/04/29 06:59:12;;;;;;;11.60;8.90;;;9.50;99.90;;;;;;5025367;28;20041;-76
2021/04/29 07:01:38;;;;;;;8.55;7.03;;;9.50;99.90;;;;;;5034341;28;20056;-76
2021/04/29 07:04:04;;;;;;;10.98;8.52;;;9.50;99.90;;;;;;5033048;28;20039;-76
2021/04/29 07:06:31;;;;;;;11.00;8.68;;;9.60;99.90;;;;;;5035833;28;20467;-76
2021/04/29 07:09:00;;;;;;;12.90;8.30;;;9.60;99.90;;;;;;5038459;28;20029;-76
2021/04/29 07:11:28;;;;;;;12.13;8.57;;;9.50;99.90;;;;;;5037106;28;20040;-76
2021/04/29 07:13:54;;;;;;;10.23;7.50;;;9.40;99.90;;;;;;5039354;28;20033;-76
2021/04/29 07:16:20;;;;;;;10.27;8.18;;;9.30;99.90;;;;;;5040918;28;20376;-76
2021/04/29 07:18:46;;;;;;;9.30;8.30;;;9.30;99.90;;;;;;5034498;28;20451;-75
2021/04/29 07:21:11;;;;;;;16.00;8.15;;;9.40;99.90;;;;;;5037550;28;20035;-76
2021/04/29 07:23:37;;;;;;;13.13;7.72;;;9.40;99.90;;;;;;5033952;28;20041;-76
2021/04/29 07:26:03;;;;;;;8.52;6.97;;;9.40;99.90;;;;;;5035762;28;20037;-76
2021/04/29 07:28:29;;;;;;;9.55;8.52;;;9.50;99.90;;;;;;5027702;28;20060;-76
2021/04/29 07:30:55;;;;;;;9.60;7.50;;;9.50;99.90;;;;;;5040217;28;20033;-76
2021/04/29 07:33:21;;;;;;;7.45;6.75;;;9.40;99.90;;;;;;5033536;28;20090;-76
2021/04/29 07:35:47;;;;;;;7.75;6.63;;;9.30;99.90;;;;;;5036212;28;20532;-76
2021/04/29 07:38:13;;;;;;;8.98;7.22;;;9.30;99.90;;;;;;5039574;28;20017;-76
2021/04/29 07:40:38;;;;;;;11.63;6.85;;;9.40;99.90;;;;;;5038322;28;20466;-76
2021/04/29 07:43:05;;;;;;;10.85;5.75;;;9.50;99.90;;;;;;5048791;28;20070;-76
2021/04/29 07:45:31;;;;;;;7.15;6.40;;;9.20;99.90;;;;;;5044159;28;20033;-76
2021/04/29 07:47:58;;;;;;;7.43;6.63;;;9.10;99.90;;;;;;5039432;28;20021;-76
2021/04/29 07:50:24;;;;;;;7.85;7.03;;;9.10;99.90;;;;;;5049323;28;20046;-76
2021/04/29 07:52:50;;;;;;;9.30;6.78;;;9.20;99.90;;;;;;5048228;28;20112;-75
2021/04/29 07:55:17;;;;;;;12.18;6.85;;;9.20;99.90;;;;;;5044875;28;20104;-76
2021/04/29 07:57:43;;;;;;;8.05;5.80;;;9.30;99.90;;;;;;5040938;28;20424;-76
2021/04/29 08:00:13;;;;;;;9.50;5.70;;;9.20;99.90;;;;;;5039367;28;20017;-76
2021/04/29 08:02:41;;;;;;;6.15;5.25;;;9.20;99.90;;;;;;5030675;28;20049;-76
2021/04/29 08:05:08;;;;;;;7.63;5.50;;;9.20;99.90;;;;;;5043910;28;20033;-76
2021/04/29 08:07:34;;;;;;;7.43;6.03;;;9.30;99.90;;;;;;5049629;28;20720;-76
2021/04/29 08:10:00;;;;;;;11.05;5.10;;;9.10;99.90;;;;;;5038443;28;20041;-76
2021/04/29 08:12:26;;;;;;;6.70;5.30;;;9.10;99.90;;;;;;5034716;28;20510;-76
2021/04/29 08:14:53;;;;;;;35.25;6.47;;;9.00;99.90;;;;;;5046113;28;20030;-76
2021/04/29 08:17:19;;;;;;;5.75;4.85;;;9.10;99.90;;;;;;5033603;28;20067;-75
2021/04/29 08:19:45;;;;;;;8.02;5.43;;;9.20;99.90;;;;;;5032792;28;20029;-76
2021/04/29 08:22:11;;;;;;;10.52;6.05;;;9.00;99.90;;;;;;5036704;28;20463;-76
2021/04/29 08:24:37;;;;;;;9.65;5.05;;;9.00;99.90;;;;;;5037207;28;20029;-76
2021/04/29 08:27:03;;;;;;;9.90;4.88;;;8.80;99.90;;;;;;5031958;28;20030;-76
2021/04/29 08:29:28;;;;;;;6.80;5.97;;;8.90;99.90;;;;;;5036644;28;20041;-76
2021/04/29 08:31:54;;;;;;;7.07;5.22;;;9.10;99.90;;;;;;5036527;28;20036;-76
2021/04/29 08:34:20;;;;;;;8.60;5.68;;;9.00;99.90;;;;;;5035181;28;20391;-76
2021/04/29 08:36:46;;;;;;;6.15;5.35;;;9.00;99.90;;;;;;5033483;28;20025;-76
2021/04/29 08:39:12;;;;;;;7.55;5.93;;;9.00;99.90;;;;;;5031537;28;20029;-76
2021/04/29 08:41:38;;;;;;;9.95;6.03;;;9.20;99.90;;;;;;5033187;28;20388;-75
2021/04/29 08:44:07;;;;;;;7.28;5.38;;;9.10;99.90;;;;;;5029981;28;20041;-75
2021/04/29 08:46:34;;;;;;;6.07;5.47;;;9.20;99.90;;;;;;5037588;28;20029;-76
2021/04/29 08:49:00;;;;;;;6.65;4.60;;;9.20;99.90;;;;;;5037771;28;20060;-75
2021/04/29 08:51:27;;;;;;;6.30;5.40;;;9.30;99.90;;;;;;5041637;28;20025;-75
2021/04/29 08:53:54;;;;;;;5.07;4.50;;;9.40;99.90;;;;;;5044709;28;20524;-75
2021/04/29 08:56:23;;;;;;;5.85;5.30;;;9.50;99.90;;;;;;5042117;28;20074;-76
2021/04/29 08:58:54;;;;;;;7.22;6.25;;;9.70;99.90;;;;;;5042986;28;20028;-76
2021/04/29 09:01:20;;;;;;;8.48;5.68;;;9.80;99.90;;;;;;5036827;28;20041;-76
2021/04/29 09:03:46;;;;;;;8.27;5.43;;;10.00;99.90;;;;;;5043668;28;20030;-76
2021/04/29 09:06:12;;;;;;;4.90;4.15;;;9.90;99.90;;;;;;5038388;28;20025;-76
2021/04/29 09:08:39;;;;;;;6.78;4.07;;;10.00;99.90;;;;;;5035976;28;20372;-76
2021/04/29 09:11:16;;;;;;;6.18;4.72;;;9.80;99.90;;;;;;5039775;28;20028;-76
2021/04/29 09:14:00;;;;;;;5.93;4.32;;;9.80;99.90;;;;;;5038849;28;20440;-76
2021/04/29 09:16:44;;;;;;;7.38;4.55;;;9.90;99.90;;;;;;5036520;28;20025;-76
2021/04/29 09:19:23;;;;;;;7.53;4.90;;;9.80;99.90;;;;;;5044335;28;20087;-75
2021/04/29 09:21:49;;;;;;;5.30;4.20;;;9.90;99.90;;;;;;5040457;28;20049;-75
2021/04/29 09:24:15;;;;;;;5.60;4.90;;;10.30;99.90;;;;;;5042755;28;20068;-76
2021/04/29 09:26:41;;;;;;;4.50;4.10;;;10.30;99.90;;;;;;5052495;28;20048;-75
2021/04/29 09:29:15;;;;;;;5.22;4.45;;;10.20;99.90;;;;;;5037995;28;20045;-76
2021/04/29 09:31:43;;;;;;;5.07;4.55;;;10.30;99.90;;;;;;5032097;28;20029;-76
2021/04/29 09:34:10;;;;;;;4.53;3.78;;;10.40;99.90;;;;;;5041848;28;20427;-76
2021/04/29 09:36:43;;;;;;;4.03;3.70;;;10.30;99.90;;;;;;5045556;28;20025;-75
2021/04/29 09:39:10;;;;;;;5.30;4.63;;;10.20;99.90;;;;;;5051383;28;20487;-76
2021/04/29 09:41:41;;;;;;;4.68;4.28;;;10.40;99.90;;;;;;5046215;28;20067;-76
2021/04/29 09:44:12;;;;;;;7.25;3.78;;;10.20;99.90;;;;;;5035906;28;20041;-76
2021/04/29 09:46:42;;;;;;;4.20;3.80;;;10.30;99.90;;;;;;5039098;28;20026;-76
2021/04/29 09:49:22;;;;;;;7.28;3.97;;;10.50;99.90;;;;;;5039530;28;20098;-75
2021/04/29 09:51:48;;;;;;;;;;;10.60;99.90;;;;;;5042726;28;20112;-75
2021/04/29 09:54:34;;;;;;;5.78;3.70;;;10.70;99.90;;;;;;5038538;28;20377;-76
2021/04/29 09:57:04;;;;;;;9.60;4.70;;;10.60;99.90;;;;;;5043579;28;20029;-76
2021/04/29 09:59:32;;;;;;;9.02;4.93;;;10.50;99.90;;;;;;5043626;28;20021;-76
2021/04/29 10:02:00;;;;;;;9.63;5.28;;;10.40;99.90;;;;;;5046414;28;20102;-76
2021/04/29 10:04:28;;;;;;;8.35;4.90;;;10.40;99.90;;;;;;5036250;28;20483;-76
2021/04/29 10:07:00;;;;;;;8.18;4.70;;;10.50;99.90;;;;;;5041212;28;20068;-76
2021/04/29 10:09:31;;;;;;;10.20;5.15;;;10.50;99.90;;;;;;5038258;28;20088;-76
2021/04/29 10:12:04;;;;;;;7.47;4.15;;;10.70;99.90;;;;;;5040951;28;20029;-76
2021/04/29 10:14:38;;;;;;;10.80;5.22;;;11.10;99.90;;;;;;5047156;28;20032;-76
2021/04/29 10:17:09;;;;;;;7.78;4.95;;;11.40;99.90;;;;;;5034287;28;20060;-75
2021/04/29 10:19:41;;;;;;;8.55;4.68;;;11.50;99.90;;;;;;5040639;28;20014;-76
2021/04/29 10:22:08;;;;;;;6.53;4.30;;;11.50;99.90;;;;;;5043882;28;20030;-76
2021/04/29 10:24:35;;;;;;;10.05;4.57;;;11.30;99.90;;;;;;5047809;28;20398;-76
2021/04/29 10:27:07;;;;;;;6.00;4.75;;;11.00;99.90;;;;;;5045469;28;20030;-76
2021/04/29 10:29:34;;;;;;;7.93;4.63;;;11.10;99.90;;;;;;5047135;28;20044;-76
2021/04/29 10:32:02;;;;;;;8.07;5.47;;;11.10;99.90;;;;;;5046236;28;20463;-76
2021/04/29 10:34:39;;;;;;;5.28;3.95;;;11.30;99.90;;;;;;5046702;28;20497;-76
2021/04/29 10:37:26;;;;;;;5.30;4.55;;;11.60;99.90;;;;;;5037209;28;20164;-76
2021/04/29 10:40:01;;;;;;;6.57;3.53;;;11.60;99.90;;;;;;5035093;28;20104;-76
2021/04/29 10:42:28;;;;;;;6.57;4.20;;;11.30;99.90;;;;;;5044819;28;20041;-76
2021/04/29 10:45:05;;;;;;;5.93;3.40;;;11.40;99.90;;;;;;5044877;28;20417;-75
2021/04/29 10:47:32;;;;;;;4.40;2.90;;;11.20;99.90;;;;;;5036029;28;20107;-76
2021/04/29 10:50:18;;;;;;;3.72;3.38;;;11.30;99.90;;;;;;5037287;28;20040;-77
2021/04/29 10:52:57;;;;;;;4.13;3.72;;;11.10;99.90;;;;;;5033095;28;20037;-76
2021/04/29 10:55:26;;;;;;;6.10;4.60;;;11.10;99.90;;;;;;5035598;28;20033;-76
2021/04/29 10:57:53;;;;;;;7.03;3.17;;;11.00;99.90;;;;;;5034162;28;20490;-77
2021/04/29 11:00:20;;;;;;;9.30;4.18;;;10.90;99.90;;;;;;5034923;28;20096;-77
2021/04/29 11:03:07;;;;;;;6.80;4.88;;;11.00;99.90;;;;;;5036576;28;20056;-77
2021/04/29 11:05:35;;;;;;;9.25;4.40;;;11.20;99.90;;;;;;5034242;28;20017;-77
2021/04/29 11:08:06;;;;;;;7.45;4.95;;;11.30;99.90;;;;;;5034172;28;20032;-77
2021/04/29 11:10:40;;;;;;;14.50;5.13;;;11.40;99.90;;;;;;5035690;28;20037;-77
2021/04/29 11:13:07;;;;;;;10.60;4.85;;;11.40;99.90;;;;;;5034449;28;20511;-77
2021/04/29 11:15:38;;;;;;;5.45;3.95;;;11.40;99.90;;;;;;5031849;28;20057;-77
2021/04/29 11:18:05;;;;;;;8.13;4.53;;;11.50;99.90;;;;;;5033102;28;20029;-77
2021/04/29 11:20:54;;;;;;;9.95;4.70;;;11.50;99.90;;;;;;5033257;28;20083;-77
2021/04/29 11:23:26;;;;;;;7.22;3.67;;;11.60;99.90;;;;;;5033894;28;20028;-77
2021/04/29 11:26:03;;;;;;;5.65;3.75;;;11.80;99.90;;;;;;5036402;28;20029;-77
2021/04/29 11:28:29;;;;;;;5.25;4.18;;;11.80;99.90;;;;;;5033273;28;20028;-78
2021/04/29 11:30:55;;;;;;;7.55;3.58;;;11.50;99.90;;;;;;5031646;28;20048;-78
2021/04/29 11:33:30;;;;;;;6.53;3.05;;;11.30;99.90;;;;;;5033029;28;20017;-78
2021/04/29 11:35:56;;;;;;;4.63;3.70;;;11.40;99.90;;;;;;5034058;28;20016;-77
2021/04/29 11:38:21;;;;;;;8.95;3.50;;;11.60;99.90;;;;;;5036554;28;20104;-77
2021/04/29 11:40:47;;;;;;;10.80;4.65;;;11.50;99.90;;;;;;5034663;28;20429;-77
2021/04/29 11:43:13;;;;;;;6.00;3.25;;;11.50;99.90;;;;;;5038622;28;20025;-77
2021/04/29 11:45:41;;;;;;;6.68;3.58;;;11.30;99.90;;;;;;5035567;28;20506;-79
2021/04/29 11:48:09;;;;;;;6.30;4.03;;;11.40;99.90;;;;;;5031818;28;20022;-77
2021/04/29 11:50:47;;;;;;;5.38;3.55;;;11.30;99.90;;;;;;5032688;28;20033;-77
2021/04/29 11:53:16;;;;;;;7.47;3.78;;;11.50;99.90;;;;;;5030096;28;20037;-77
2021/04/29 11:55:48;;;;;;;3.92;3.38;;;11.80;99.90;;;;;;5045388;28;20033;-77
2021/04/29 11:58:23;;;;;;;6.70;4.18;;;11.80;99.90;;;;;;5028237;28;20406;-77
2021/04/29 12:00:51;;;;;;;11.50;3.97;;;11.80;99.90;;;;;;5037693;28;20037;-77
2021/04/29 12:03:18;;;;;;;4.68;3.05;;;11.90;99.90;;;;;;5034791;28;20025;-77
2021/04/29 12:05:49;;;;;;;5.13;3.17;;;11.90;99.90;;;;;;5038900;28;20483;-77
2021/04/29 12:08:41;;;;;;;7.30;3.50;;;11.70;99.90;;;;;;5045221;28;20057;-77
2021/04/29 12:11:10;;;;;;;5.07;3.42;;;11.50;99.90;;;;;;5036677;28;20564;-77
2021/04/29 12:13:38;;;;;;;7.10;3.50;;;11.50;99.90;;;;;;5036968;28;20029;-77
2021/04/29 12:16:05;;;;;;;6.03;2.97;;;11.70;99.90;;;;;;5036891;28;20525;-77
2021/04/29 12:18:31;;;;;;;5.20;3.03;;;11.90;99.90;;;;;;5033664;28;20153;-77
2021/04/29 12:20:58;;;;;;;5.93;2.97;;;11.90;99.90;;;;;;5040057;28;20036;-77
2021/04/29 12:23:24;;;;;;;4.25;3.08;;;11.90;99.90;;;;;;5036534;28;20101;-77
2021/04/29 12:26:08;;;;;;;6.32;2.90;;;12.00;99.90;;;;;;5041451;28;20116;-77
2021/04/29 12:28:35;;;;;;;7.30;3.63;;;12.20;99.90;;;;;;5039127;28;20060;-77
2021/04/29 12:31:22;;;;;;;5.82;3.70;;;12.20;99.90;;;;;;5034227;28;20025;-77
2021/04/29 12:34:21;;;;;;;3.40;2.65;;;12.40;99.90;;;;;;5036832;28;20024;-77
2021/04/29 12:37:06;;;;;;;4.15;2.38;;;12.60;99.90;;;;;;5037019;28;20495;-77
2021/04/29 12:39:43;;;;;;;4.90;2.95;;;12.60;99.90;;;;;;5028970;28;20105;-77
2021/04/29 12:42:14;;;;;;;4.80;2.65;;;12.70;99.90;;;;;;5033495;28;20037;-77
2021/04/29 12:44:58;;;;;;;6.93;3.15;;;12.90;99.90;;;;;;5034367;28;20021;-75
2021/04/29 12:47:29;;;;;;;4.13;2.38;;;13.70;99.90;;;;;;5034998;28;20033;-77
2021/04/29 12:50:05;;;;;;;3.40;2.47;;;13.80;99.90;;;;;;5041259;28;20025;-77
2021/04/29 12:52:32;;;;;;;3.40;2.95;;;13.40;99.90;;;;;;5042800;28;20528;-77
2021/04/29 12:55:09;;;;;;;7.72;2.70;;;13.10;99.90;;;;;;5034437;28;20462;-77